Terminal Aerodrome Forecast
Issued by NWS

Home | Current Version | Previous Version | Text Only | Print | Product List | Glossary On
Versions: 1 2 3 4 5 6 7 8 9 10 11 12
000
FTUS43 KMQT 012300
TAFIWD
TAF
KIWD 012320Z 0200/0224 18003KT 4SM -SHRA BR OVC015
     FM020600 21004KT 3SM BR OVC007
     FM021700 VRB03KT P6SM BKN015
     FM022100 36005KT 5SM -SHRA BR OVC007
      AMD NOT SKED=

USA.gov is the U.S. government's official web portal to all federal, state and local government web resources and services.